createdAt,value
2023-03-30T00:02:19.343Z,69.93
2023-03-30T00:05:31.486Z,69.42
2023-03-30T00:08:44.885Z,69.63
2023-03-30T00:11:57.151Z,69.81
2023-03-30T00:15:12.570Z,69.56
2023-03-30T00:18:25.293Z,69.66
2023-03-30T00:21:37.723Z,69.35
2023-03-30T00:24:49.864Z,69.05
2023-03-30T00:28:02.055Z,69.04
2023-03-30T00:31:15.157Z,69.19
2023-03-30T00:34:28.217Z,69.35
2023-03-30T00:37:40.956Z,69.39
2023-03-30T00:41:00.914Z,69.46
2023-03-30T00:44:30.488Z,69.16
2023-03-30T00:47:46.808Z,69.51
2023-03-30T00:51:01.054Z,69.20
2023-03-30T00:54:17.921Z,69.05
2023-03-30T00:57:32.728Z,69.52
2023-03-30T01:00:47.432Z,69.38
2023-03-30T01:04:02.348Z,69.68
2023-03-30T01:07:16.690Z,69.91
2023-03-30T01:10:29.244Z,69.91
2023-03-30T01:13:46.143Z,69.71
2023-03-30T01:17:04.772Z,69.88
2023-03-30T01:21:04.385Z,70.31
2023-03-30T01:25:03.539Z,69.95
2023-03-30T01:28:31.927Z,70.84
2023-03-30T01:32:03.804Z,71.64
2023-03-30T01:35:47.997Z,71.12
2023-03-30T01:39:35.347Z,71.02
2023-03-30T01:42:53.762Z,71.06
2023-03-30T01:46:11.214Z,70.79
2023-03-30T01:49:28.395Z,70.63
2023-03-30T01:52:48.580Z,70.81
2023-03-30T01:56:06.905Z,70.96
2023-03-30T01:59:27.310Z,71.61
2023-03-30T02:02:41.051Z,72.57
2023-03-30T02:05:57.357Z,72.80
2023-03-30T02:09:10.167Z,75.60
2023-03-30T02:12:23.090Z,74.92
2023-03-30T02:15:41.134Z,77.20
2023-03-30T02:18:55.006Z,76.01
2023-03-30T02:22:08.867Z,76.75
2023-03-30T02:25:23.480Z,77.85
2023-03-30T02:28:35.818Z,76.01
2023-03-30T02:31:48.622Z,75.74
2023-03-30T02:35:31.792Z,75.01
2023-03-30T02:39:09.198Z,75.25
2023-03-30T02:42:46.254Z,75.07
2023-03-30T02:46:05.214Z,75.11
2023-03-30T02:49:26.028Z,75.08
2023-03-30T02:52:50.338Z,75.31
2023-03-30T02:56:11.652Z,74.97
2023-03-30T02:59:33.040Z,75.33
2023-03-30T03:02:47.121Z,75.46
2023-03-30T03:06:02.933Z,75.81
2023-03-30T03:09:17.818Z,76.22
2023-03-30T03:12:30.640Z,76.58
2023-03-30T03:15:44.911Z,77.02
2023-03-30T03:18:57.404Z,77.02
2023-03-30T03:22:10.311Z,77.20
2023-03-30T03:25:22.844Z,77.58
2023-03-30T03:28:40.880Z,77.53
2023-03-30T03:31:53.208Z,77.87
2023-03-30T03:35:07.561Z,78.29
2023-03-30T03:38:20.456Z,78.16
2023-03-30T03:41:33.825Z,79.24
2023-03-30T03:44:46.052Z,78.47
2023-03-30T03:47:59.952Z,79.79
2023-03-30T03:51:17.101Z,80.00
2023-03-30T03:54:29.788Z,79.94
2023-03-30T03:57:42.081Z,79.81
2023-03-30T04:00:54.976Z,79.41
2023-03-30T04:04:07.455Z,79.49
2023-03-30T04:07:19.735Z,79.59
2023-03-30T04:10:32.229Z,79.99
2023-03-30T04:13:54.392Z,79.74
2023-03-30T04:17:26.171Z,79.80
2023-03-30T04:20:52.906Z,80.30
2023-03-30T04:24:14.812Z,80.41
2023-03-30T04:27:38.593Z,80.29
2023-03-30T04:31:09.547Z,80.64
2023-03-30T04:34:24.931Z,81.04
2023-03-30T04:37:41.648Z,81.13
2023-03-30T04:41:14.424Z,81.37
2023-03-30T04:44:29.100Z,81.08
2023-03-30T04:47:46.910Z,80.79
2023-03-30T04:51:08.667Z,80.97
2023-03-30T04:54:26.263Z,80.66
2023-03-30T04:57:46.817Z,80.83
2023-03-30T05:01:04.142Z,80.60
2023-03-30T05:04:24.522Z,80.56
2023-03-30T05:07:56.321Z,79.98
2023-03-30T05:11:17.097Z,79.81
2023-03-30T05:14:32.340Z,79.66
2023-03-30T05:17:46.927Z,79.69
2023-03-30T05:21:04.848Z,78.90
2023-03-30T05:24:22.004Z,78.70
2023-03-30T05:27:36.202Z,79.11
2023-03-30T05:30:51.144Z,80.94
2023-03-30T05:34:11.615Z,80.85
2023-03-30T05:37:28.551Z,80.04
2023-03-30T05:40:43.686Z,79.76
2023-03-30T05:44:03.919Z,80.70
2023-03-30T05:47:18.365Z,80.13
2023-03-30T05:50:51.482Z,80.04
2023-03-30T05:54:06.982Z,80.28
2023-03-30T05:57:31.487Z,78.73
2023-03-30T06:00:49.923Z,78.21
2023-03-30T06:04:05.123Z,78.30
2023-03-30T06:07:18.621Z,77.62
2023-03-30T06:10:31.502Z,77.99
2023-03-30T06:13:44.685Z,78.19
2023-03-30T06:16:57.964Z,77.51
2023-03-30T06:20:13.650Z,77.16
2023-03-30T06:23:28.062Z,77.52
2023-03-30T06:26:41.358Z,77.42
2023-03-30T06:29:53.624Z,76.74
2023-03-30T06:33:06.091Z,76.62
2023-03-30T06:36:44.533Z,75.96
2023-03-30T06:39:43.921Z,75.65
2023-03-30T06:42:57.269Z,74.87
2023-03-30T06:46:23.788Z,74.37
2023-03-30T06:49:36.818Z,73.52
2023-03-30T06:53:08.661Z,72.14
2023-03-30T06:56:26.902Z,72.64
2023-03-30T06:59:47.129Z,72.97
2023-03-30T07:03:07.221Z,72.45
2023-03-30T07:06:27.564Z,72.12
2023-03-30T07:09:40.532Z,72.21
2023-03-30T07:12:53.823Z,71.96
2023-03-30T07:16:08.338Z,72.10
2023-03-30T07:19:20.963Z,70.98
2023-03-30T07:22:33.468Z,71.13
2023-03-30T07:25:46.548Z,70.26
2023-03-30T07:29:01.744Z,69.70
2023-03-30T07:32:14.487Z,69.38
2023-03-30T07:35:27.334Z,68.75
2023-03-30T07:38:40.373Z,68.22
2023-03-30T07:41:54.305Z,68.08
2023-03-30T07:45:07.513Z,66.59
2023-03-30T07:48:20.088Z,65.09
2023-03-30T07:51:32.961Z,63.22
2023-03-30T07:54:54.924Z,62.31
2023-03-30T07:58:09.403Z,63.17
2023-03-30T08:01:21.552Z,63.08
2023-03-30T08:04:53.405Z,62.81
2023-03-30T08:08:10.936Z,61.93
2023-03-30T08:11:23.973Z,61.44
2023-03-30T08:14:36.466Z,58.31
2023-03-30T08:17:48.935Z,59.04
2023-03-30T08:21:02.208Z,59.15
2023-03-30T08:24:16.399Z,59.96
2023-03-30T08:27:28.659Z,59.93
2023-03-30T08:30:41.212Z,60.12
2023-03-30T08:33:53.450Z,57.91
2023-03-30T08:37:05.926Z,57.52
2023-03-30T08:40:20.591Z,57.08
2023-03-30T08:43:51.580Z,55.17
2023-03-30T08:47:05.998Z,52.81
2023-03-30T08:50:23.447Z,53.48
2023-03-30T08:53:38.705Z,53.79
2023-03-30T08:56:56.182Z,54.02
2023-03-30T09:00:21.722Z,55.11
2023-03-30T09:03:41.474Z,55.77
2023-03-30T09:06:59.810Z,56.58
2023-03-30T09:10:20.057Z,56.61
2023-03-30T09:13:38.130Z,57.08
2023-03-30T09:16:57.393Z,57.58
2023-03-30T09:20:16.544Z,57.76
2023-03-30T09:23:30.117Z,58.20
2023-03-30T09:26:48.574Z,57.64
2023-03-30T09:30:06.099Z,59.05
2023-03-30T09:33:31.167Z,58.33
2023-03-30T09:36:48.439Z,58.81
2023-03-30T09:40:00.691Z,58.77
2023-03-30T09:43:19.448Z,57.80
2023-03-30T09:46:32.663Z,58.09
2023-03-30T09:49:47.597Z,57.86
2023-03-30T09:53:10.363Z,57.71
2023-03-30T09:56:34.032Z,58.02
2023-03-30T09:59:46.432Z,58.45
2023-03-30T10:03:05.693Z,58.79
2023-03-30T10:06:23.881Z,58.51
2023-03-30T10:09:36.727Z,58.51
2023-03-30T10:12:49.296Z,58.51
2023-03-30T10:16:04.469Z,57.98
2023-03-30T10:19:25.273Z,55.65
2023-03-30T10:22:37.918Z,53.47
2023-03-30T10:25:53.491Z,51.85
2023-03-30T10:29:11.205Z,49.45
2023-03-30T10:32:28.337Z,47.79
2023-03-30T10:35:41.638Z,46.84
2023-03-30T10:38:54.286Z,46.11
2023-03-30T10:42:09.876Z,45.79
2023-03-30T10:45:31.328Z,46.28
2023-03-30T10:48:56.961Z,46.49
2023-03-30T10:52:17.562Z,46.51
2023-03-30T10:55:37.107Z,47.68
2023-03-30T10:59:03.066Z,48.09
2023-03-30T11:02:40.197Z,50.78
2023-03-30T11:05:56.973Z,51.15
2023-03-30T11:09:11.665Z,51.68
2023-03-30T11:12:27.312Z,51.04
2023-03-30T11:15:45.621Z,50.09
2023-03-30T11:19:04.124Z,49.55
2023-03-30T11:22:23.174Z,48.28
2023-03-30T11:25:41.254Z,47.43
2023-03-30T11:29:07.285Z,46.46
2023-03-30T11:32:29.546Z,45.87
2023-03-30T11:35:47.441Z,45.10
2023-03-30T11:39:07.370Z,46.89
2023-03-30T11:42:25.627Z,47.80
2023-03-30T11:46:02.750Z,49.32
2023-03-30T11:49:38.441Z,50.97
2023-03-30T11:52:59.015Z,52.88
2023-03-30T11:56:16.360Z,53.51
2023-03-30T11:59:35.863Z,54.44
2023-03-30T12:02:54.932Z,54.73
2023-03-30T12:06:25.213Z,56.13
2023-03-30T12:09:41.058Z,56.50
2023-03-30T12:12:56.103Z,57.73
2023-03-30T12:16:13.038Z,57.57
2023-03-30T12:19:26.506Z,56.67
2023-03-30T12:22:45.625Z,56.57
2023-03-30T12:26:18.070Z,54.40
2023-03-30T12:29:52.536Z,53.09
2023-03-30T12:32:55.095Z,52.46
2023-03-30T12:36:09.958Z,53.57
2023-03-30T12:39:30.830Z,55.02
2023-03-30T12:42:47.188Z,56.22
2023-03-30T12:46:06.541Z,57.86
2023-03-30T12:49:28.082Z,57.33
2023-03-30T12:52:50.170Z,57.04
2023-03-30T12:56:10.165Z,58.18
2023-03-30T13:00:07.572Z,58.33
2023-03-30T13:03:46.017Z,57.98
2023-03-30T13:07:02.998Z,57.75
2023-03-30T13:10:42.027Z,58.90
2023-03-30T13:14:03.208Z,59.37
2023-03-30T13:17:24.207Z,59.41
2023-03-30T13:20:55.155Z,59.69
2023-03-30T13:24:25.205Z,59.24
2023-03-30T13:27:41.923Z,59.95
2023-03-30T13:30:54.382Z,60.06
2023-03-30T13:34:14.802Z,59.62
2023-03-30T13:37:31.583Z,59.26
2023-03-30T13:44:25.140Z,58.60
2023-03-30T13:47:58.496Z,59.47
2023-03-30T13:51:14.366Z,59.37
2023-03-30T13:54:31.915Z,58.12
2023-03-30T13:57:47.496Z,58.64
2023-03-30T14:01:03.777Z,59.26
2023-03-30T14:04:18.746Z,59.55
2023-03-30T14:07:31.076Z,59.82
2023-03-30T14:10:43.388Z,60.07
2023-03-30T14:13:59.562Z,60.01
2023-03-30T14:17:23.767Z,60.35
2023-03-30T14:20:51.013Z,60.25
2023-03-30T14:24:03.297Z,60.63
2023-03-30T14:27:20.443Z,61.29
2023-03-30T14:30:35.040Z,61.66
2023-03-30T14:33:47.743Z,61.75
2023-03-30T14:37:00.818Z,61.31
2023-03-30T14:40:20.599Z,61.43
2023-03-30T14:43:39.431Z,61.92
2023-03-30T14:46:55.100Z,61.46
2023-03-30T14:50:12.135Z,62.20
2023-03-30T14:53:25.340Z,62.38
2023-03-30T14:56:38.401Z,62.00
2023-03-30T14:59:55.327Z,62.30
2023-03-30T15:03:19.590Z,62.96
2023-03-30T15:06:29.590Z,62.98
2023-03-30T15:09:46.348Z,62.64
2023-03-30T15:13:01.276Z,63.04
2023-03-30T15:16:15.984Z,62.66
2023-03-30T15:19:35.362Z,63.25
2023-03-30T15:22:51.919Z,63.55
2023-03-30T15:26:08.828Z,63.74
2023-03-30T15:29:24.523Z,63.85
2023-03-30T15:32:42.594Z,63.87
2023-03-30T15:35:59.872Z,64.25
2023-03-30T15:39:28.165Z,63.95
2023-03-30T15:42:42.328Z,64.16
2023-03-30T15:46:01.996Z,67.23
2023-03-30T15:49:17.133Z,67.18
2023-03-30T15:52:34.259Z,67.39
2023-03-30T15:55:46.145Z,68.80
2023-03-30T15:58:59.301Z,70.07
2023-03-30T16:02:21.958Z,74.88
2023-03-30T16:05:37.092Z,76.71
2023-03-30T16:08:49.680Z,79.14
2023-03-30T16:12:04.516Z,80.38
2023-03-30T16:15:26.961Z,80.95
2023-03-30T16:18:42.110Z,80.89
2023-03-30T16:21:54.947Z,80.21
2023-03-30T16:25:07.885Z,79.34
2023-03-30T16:28:23.115Z,77.49
2023-03-30T16:31:36.599Z,76.98
2023-03-30T16:34:49.502Z,76.27
2023-03-30T16:38:02.235Z,76.63
2023-03-30T16:41:17.506Z,77.74
2023-03-30T16:44:31.153Z,77.86
2023-03-30T16:50:50.078Z,78.92
2023-03-30T16:54:02.355Z,79.48
2023-03-30T16:57:16.924Z,79.69
2023-03-30T17:00:33.669Z,79.93
2023-03-30T17:03:47.146Z,81.11
2023-03-30T17:07:00.188Z,82.79
2023-03-30T17:10:24.436Z,85.59
2023-03-30T17:13:37.740Z,87.72
2023-03-30T17:16:50.367Z,89.48
2023-03-30T17:20:05.174Z,91.29
2023-03-30T17:23:17.824Z,93.53
2023-03-30T17:26:30.553Z,96.82
2023-03-30T17:29:43.009Z,98.06
2023-03-30T17:32:58.080Z,100.00
2023-03-30T17:36:16.655Z,100.00
2023-03-30T17:39:28.897Z,100.00
2023-03-30T17:42:41.470Z,100.00
2023-03-30T17:45:55.173Z,100.00
2023-03-30T17:49:08.026Z,100.00
2023-03-30T17:52:20.464Z,100.00
2023-03-30T17:55:35.505Z,100.00
2023-03-30T17:58:49.482Z,100.00
2023-03-30T18:02:02.215Z,100.00
2023-03-30T18:05:16.123Z,100.00
2023-03-30T18:08:30.045Z,100.00
2023-03-30T18:11:43.123Z,100.00
2023-03-30T18:14:55.528Z,100.00
2023-03-30T18:18:17.015Z,100.00
2023-03-30T18:21:29.367Z,100.00
2023-03-30T18:24:43.354Z,100.00
2023-03-30T18:27:56.905Z,100.00
2023-03-30T18:31:10.800Z,100.00
2023-03-30T18:34:23.502Z,100.00
2023-03-30T18:37:35.948Z,100.00
2023-03-30T18:40:50.687Z,100.00
2023-03-30T18:44:03.424Z,100.00
2023-03-30T18:47:16.992Z,100.00
2023-03-30T18:50:36.642Z,100.00
2023-03-30T18:53:49.155Z,100.00
2023-03-30T18:57:02.591Z,100.00
2023-03-30T19:00:26.639Z,100.00
2023-03-30T19:03:39.144Z,100.00
2023-03-30T19:06:53.193Z,100.00
2023-03-30T19:10:05.539Z,100.00
2023-03-30T19:13:21.628Z,100.00
2023-03-30T19:16:34.010Z,100.00
2023-03-30T19:19:46.315Z,100.00
2023-03-30T19:22:59.278Z,100.00
2023-03-30T19:26:11.840Z,100.00
2023-03-30T19:29:24.077Z,100.00
2023-03-30T19:32:36.276Z,100.00
2023-03-30T19:35:49.432Z,100.00
2023-03-30T19:39:02.687Z,100.00
2023-03-30T19:42:15.070Z,100.00
2023-03-30T19:45:31.573Z,100.00
2023-03-30T19:48:44.278Z,100.00
2023-03-30T19:51:56.712Z,100.00
2023-03-30T19:55:09.640Z,100.00
2023-03-30T19:58:21.920Z,100.00
2023-03-30T20:01:34.253Z,100.00
2023-03-30T20:04:47.020Z,100.00
2023-03-30T20:08:03.559Z,100.00
2023-03-30T20:11:16.751Z,100.00
2023-03-30T20:14:29.074Z,100.00
2023-03-30T20:17:42.389Z,100.00
2023-03-30T20:20:54.864Z,100.00
2023-03-30T20:24:07.599Z,100.00
2023-03-30T20:27:19.895Z,100.00
2023-03-30T20:30:32.376Z,100.00
2023-03-30T20:33:44.893Z,100.00
2023-03-30T20:36:57.359Z,100.00
2023-03-30T20:40:12.206Z,100.00
2023-03-30T20:43:26.309Z,99.92
2023-03-30T20:46:39.322Z,100.00
2023-03-30T20:49:51.535Z,100.00
2023-03-30T20:53:04.193Z,100.00
2023-03-30T20:56:17.180Z,100.00
2023-03-30T20:59:29.534Z,100.00
2023-03-30T21:02:41.886Z,99.17
2023-03-30T21:05:58.338Z,98.64
2023-03-30T21:09:13.021Z,98.33
2023-03-30T21:12:26.208Z,97.90
2023-03-30T21:15:38.582Z,97.98
2023-03-30T21:18:51.178Z,98.54
2023-03-30T21:22:04.218Z,98.24
2023-03-30T21:25:18.046Z,98.88
2023-03-30T21:28:31.603Z,98.56
2023-03-30T21:31:43.793Z,98.27
2023-03-30T21:34:56.099Z,98.31
2023-03-30T21:38:08.231Z,97.97
2023-03-30T21:41:24.392Z,98.00
2023-03-30T21:44:39.486Z,98.25
2023-03-30T21:47:52.046Z,97.50
2023-03-30T21:51:09.791Z,98.05
2023-03-30T21:54:22.096Z,97.48
2023-03-30T21:57:34.474Z,97.26
2023-03-30T22:00:46.856Z,97.48
2023-03-30T22:04:00.011Z,97.34
2023-03-30T22:07:12.793Z,97.49
2023-03-30T22:10:26.135Z,96.51
2023-03-30T22:13:39.366Z,96.48
2023-03-30T22:16:51.873Z,96.47
2023-03-30T22:20:04.385Z,96.65
2023-03-30T22:23:16.600Z,96.37
2023-03-30T22:26:29.330Z,96.26
2023-03-30T22:29:41.528Z,96.78
2023-03-30T22:32:53.724Z,96.51
2023-03-30T22:36:07.752Z,96.06
2023-03-30T22:39:21.242Z,96.55
2023-03-30T22:42:33.938Z,97.04
2023-03-30T22:45:47.592Z,97.34
2023-03-30T22:49:00.292Z,96.92
2023-03-30T22:52:12.732Z,97.69
2023-03-30T22:55:25.956Z,97.15
2023-03-30T22:58:38.347Z,97.73
2023-03-30T23:01:50.681Z,97.35
2023-03-30T23:05:03.686Z,97.47
2023-03-30T23:08:16.818Z,97.61
2023-03-30T23:11:29.279Z,98.18
2023-03-30T23:14:43.241Z,98.62
2023-03-30T23:17:55.737Z,97.84
2023-03-30T23:21:11.173Z,98.46
2023-03-30T23:24:23.670Z,98.75
2023-03-30T23:27:37.057Z,98.33
2023-03-30T23:30:49.327Z,99.32
2023-03-30T23:34:02.965Z,98.80
2023-03-30T23:37:17.721Z,98.32
2023-03-30T23:40:30.046Z,98.84
2023-03-30T23:43:42.236Z,97.95
2023-03-30T23:46:55.088Z,98.47
2023-03-30T23:50:07.882Z,98.04
2023-03-30T23:53:20.508Z,98.85
2023-03-30T23:56:32.722Z,98.66
2023-03-30T23:59:45.454Z,98.78
